sensor_id;sensor_type;location;lat;lon;timestamp;pressure;altitude;pressure_sealevel;temperature;humidity
22241;BME280;11289;52.524;13.694;2023-02-14T00:01:31;103150.91;;;5.41;75.62
22241;BME280;11289;52.524;13.694;2023-02-14T00:03:56;103141.47;;;5.37;75.62
22241;BME280;11289;52.524;13.694;2023-02-14T00:06:25;103159.81;;;5.44;75.13
22241;BME280;11289;52.524;13.694;2023-02-14T00:08:50;103146.97;;;5.37;75.55
22241;BME280;11289;52.524;13.694;2023-02-14T00:11:18;103155.38;;;5.43;75.50
22241;BME280;11289;52.524;13.694;2023-02-14T00:13:44;103119.81;;;5.22;75.27
22241;BME280;11289;52.524;13.694;2023-02-14T00:16:30;103143.34;;;5.37;75.48
22241;BME280;11289;52.524;13.694;2023-02-14T00:18:56;103151.16;;;5.40;75.49
22241;BME280;11289;52.524;13.694;2023-02-14T00:21:29;103115.50;;;5.15;75.72
22241;BME280;11289;52.524;13.694;2023-02-14T00:23:55;103149.56;;;5.32;75.35
22241;BME280;11289;52.524;13.694;2023-02-14T00:26:20;103143.47;;;5.30;75.70
22241;BME280;11289;52.524;13.694;2023-02-14T00:28:45;103150.88;;;5.30;75.25
22241;BME280;11289;52.524;13.694;2023-02-14T00:31:11;103135.69;;;5.27;75.25
22241;BME280;11289;52.524;13.694;2023-02-14T00:33:36;103149.56;;;5.32;75.56
22241;BME280;11289;52.524;13.694;2023-02-14T00:36:05;103145.84;;;5.27;75.06
22241;BME280;11289;52.524;13.694;2023-02-14T00:38:31;103125.56;;;5.21;75.01
22241;BME280;11289;52.524;13.694;2023-02-14T00:40:57;103114.91;;;5.13;74.97
22241;BME280;11289;52.524;13.694;2023-02-14T00:43:23;103106.72;;;5.06;75.20
22241;BME280;11289;52.524;13.694;2023-02-14T00:45:48;103131.47;;;5.25;75.17
22241;BME280;11289;52.524;13.694;2023-02-14T00:48:14;103133.38;;;5.24;75.51
22241;BME280;11289;52.524;13.694;2023-02-14T00:50:39;103092.91;;;4.94;73.45
22241;BME280;11289;52.524;13.694;2023-02-14T00:53:05;103138.34;;;5.15;74.60
22241;BME280;11289;52.524;13.694;2023-02-14T00:55:30;103125.53;;;5.09;74.91
22241;BME280;11289;52.524;13.694;2023-02-14T00:57:55;103130.31;;;5.14;74.56
22241;BME280;11289;52.524;13.694;2023-02-14T01:00:21;103144.50;;;5.17;75.01
22241;BME280;11289;52.524;13.694;2023-02-14T01:02:46;103134.19;;;5.13;75.11
22241;BME280;11289;52.524;13.694;2023-02-14T01:05:12;103132.50;;;5.12;75.44
22241;BME280;11289;52.524;13.694;2023-02-14T01:07:37;103133.72;;;5.16;75.74
22241;BME280;11289;52.524;13.694;2023-02-14T01:10:03;103127.34;;;5.15;76.05
22241;BME280;11289;52.524;13.694;2023-02-14T01:12:28;103119.78;;;5.11;76.00
22241;BME280;11289;52.524;13.694;2023-02-14T01:14:53;103127.56;;;5.14;75.45
22241;BME280;11289;52.524;13.694;2023-02-14T01:17:19;103134.31;;;5.18;75.77
22241;BME280;11289;52.524;13.694;2023-02-14T01:19:45;103134.31;;;5.18;75.62
22241;BME280;11289;52.524;13.694;2023-02-14T01:22:10;103122.94;;;5.14;75.51
22241;BME280;11289;52.524;13.694;2023-02-14T01:24:36;103104.28;;;4.98;75.55
22241;BME280;11289;52.524;13.694;2023-02-14T01:27:01;103124.81;;;5.14;75.62
22241;BME280;11289;52.524;13.694;2023-02-14T01:29:26;103119.53;;;5.12;75.73
22241;BME280;11289;52.524;13.694;2023-02-14T01:31:52;103099.75;;;5.03;75.90
22241;BME280;11289;52.524;13.694;2023-02-14T01:34:17;103105.25;;;5.03;75.69
22241;BME280;11289;52.524;13.694;2023-02-14T01:36:43;103107.19;;;5.03;75.54
22241;BME280;11289;52.524;13.694;2023-02-14T01:39:13;103112.13;;;5.13;75.59
22241;BME280;11289;52.524;13.694;2023-02-14T01:41:40;103113.22;;;5.12;75.60
22241;BME280;11289;52.524;13.694;2023-02-14T01:44:54;103102.03;;;5.06;75.80
22241;BME280;11289;52.524;13.694;2023-02-14T01:46:54;103097.16;;;5.09;75.44
22241;BME280;11289;52.524;13.694;2023-02-14T01:49:25;103099.28;;;5.06;75.56
22241;BME280;11289;52.524;13.694;2023-02-14T01:52:01;103103.97;;;5.06;75.94
22241;BME280;11289;52.524;13.694;2023-02-14T01:54:30;103107.53;;;5.06;75.63
22241;BME280;11289;52.524;13.694;2023-02-14T01:57:00;103093.03;;;4.99;75.61
22241;BME280;11289;52.524;13.694;2023-02-14T01:59:29;103092.44;;;4.97;75.40
22241;BME280;11289;52.524;13.694;2023-02-14T02:01:56;103099.97;;;5.02;76.03
22241;BME280;11289;52.524;13.694;2023-02-14T02:04:25;103111.38;;;5.05;75.85
22241;BME280;11289;52.524;13.694;2023-02-14T02:06:58;103108.47;;;5.00;75.67
22241;BME280;11289;52.524;13.694;2023-02-14T02:12:00;103094.59;;;4.95;75.59
22241;BME280;11289;52.524;13.694;2023-02-14T02:14:26;103108.00;;;5.03;75.71
22241;BME280;11289;52.524;13.694;2023-02-14T02:17:13;103105.25;;;5.03;76.09
22241;BME280;11289;52.524;13.694;2023-02-14T02:25:16;103102.97;;;5.00;76.01
22241;BME280;11289;52.524;13.694;2023-02-14T02:33:32;103111.09;;;4.95;75.78
22241;BME280;11289;52.524;13.694;2023-02-14T02:36:34;103095.38;;;4.84;74.07
22241;BME280;11289;52.524;13.694;2023-02-14T02:49:57;103109.72;;;4.86;75.25
22241;BME280;11289;52.524;13.694;2023-02-14T02:55:43;103111.88;;;4.84;75.20
22241;BME280;11289;52.524;13.694;2023-02-14T02:58:45;103107.06;;;4.79;75.24
22241;BME280;11289;52.524;13.694;2023-02-14T03:01:16;103108.38;;;4.77;74.06
22241;BME280;11289;52.524;13.694;2023-02-14T03:03:45;103115.41;;;4.73;73.52
22241;BME280;11289;52.524;13.694;2023-02-14T03:06:31;103114.34;;;4.74;74.03
22241;BME280;11289;52.524;13.694;2023-02-14T03:09:54;103107.44;;;4.64;73.99
22241;BME280;11289;52.524;13.694;2023-02-14T03:12:27;103095.06;;;4.55;74.64
22241;BME280;11289;52.524;13.694;2023-02-14T03:28:30;103105.78;;;4.63;73.70
22241;BME280;11289;52.524;13.694;2023-02-14T03:34:11;103105.91;;;4.68;75.25
22241;BME280;11289;52.524;13.694;2023-02-14T03:36:44;103114.56;;;4.72;74.73
22241;BME280;11289;52.524;13.694;2023-02-14T03:39:22;103101.47;;;4.67;74.36
22241;BME280;11289;52.524;13.694;2023-02-14T03:41:52;103112.88;;;4.71;74.29
22241;BME280;11289;52.524;13.694;2023-02-14T03:44:22;103106.56;;;4.70;74.66
22241;BME280;11289;52.524;13.694;2023-02-14T03:46:58;103096.22;;;4.66;74.51
22241;BME280;11289;52.524;13.694;2023-02-14T03:49:28;103099.34;;;4.69;75.20
22241;BME280;11289;52.524;13.694;2023-02-14T03:51:57;103087.81;;;4.61;74.98
22241;BME280;11289;52.524;13.694;2023-02-14T03:54:24;103081.84;;;4.64;75.56
22241;BME280;11289;52.524;13.694;2023-02-14T03:59:48;103095.31;;;4.72;75.18
22241;BME280;11289;52.524;13.694;2023-02-14T04:02:18;103092.56;;;4.72;74.27
22241;BME280;11289;52.524;13.694;2023-02-14T04:04:48;103086.06;;;4.66;75.13
22241;BME280;11289;52.524;13.694;2023-02-14T04:07:18;103100.81;;;4.72;75.12
22241;BME280;11289;52.524;13.694;2023-02-14T04:09:44;103098.28;;;4.70;75.37
22241;BME280;11289;52.524;13.694;2023-02-14T04:12:10;103102.88;;;4.77;75.26
22241;BME280;11289;52.524;13.694;2023-02-14T04:14:36;103090.63;;;4.73;75.49
22241;BME280;11289;52.524;13.694;2023-02-14T04:17:02;103073.44;;;4.59;75.36
22241;BME280;11289;52.524;13.694;2023-02-14T04:19:46;103086.66;;;4.68;74.93
22241;BME280;11289;52.524;13.694;2023-02-14T04:22:11;103086.41;;;4.70;75.20
22241;BME280;11289;52.524;13.694;2023-02-14T04:24:37;103084.38;;;4.65;74.83
22241;BME280;11289;52.524;13.694;2023-02-14T04:27:03;103092.78;;;4.70;75.62
22241;BME280;11289;52.524;13.694;2023-02-14T04:29:47;103086.06;;;4.66;75.46
22241;BME280;11289;52.524;13.694;2023-02-14T04:32:18;103090.94;;;4.64;75.86
22241;BME280;11289;52.524;13.694;2023-02-14T04:34:44;103092.78;;;4.70;75.54
22241;BME280;11289;52.524;13.694;2023-02-14T04:37:10;103091.94;;;4.70;75.64
22241;BME280;11289;52.524;13.694;2023-02-14T04:39:36;103077.16;;;4.64;75.97
22241;BME280;11289;52.524;13.694;2023-02-14T04:42:02;103094.91;;;4.68;75.83
22241;BME280;11289;52.524;13.694;2023-02-14T04:44:28;103093.00;;;4.69;76.06
22241;BME280;11289;52.524;13.694;2023-02-14T04:46:53;103091.31;;;4.68;75.88
22241;BME280;11289;52.524;13.694;2023-02-14T04:49:19;103073.44;;;4.59;75.98
22241;BME280;11289;52.524;13.694;2023-02-14T04:51:44;103081.00;;;4.63;75.75
22241;BME280;11289;52.524;13.694;2023-02-14T04:54:10;103079.78;;;4.59;75.83
22241;BME280;11289;52.524;13.694;2023-02-14T04:56:35;103077.03;;;4.59;75.56
22241;BME280;11289;52.524;13.694;2023-02-14T04:59:01;103076.81;;;4.61;75.52
22241;BME280;11289;52.524;13.694;2023-02-14T05:01:26;103081.91;;;4.57;74.69
22241;BME280;11289;52.524;13.694;2023-02-14T05:03:52;103067.25;;;4.45;75.43
22241;BME280;11289;52.524;13.694;2023-02-14T05:06:17;103080.69;;;4.53;75.70
22241;BME280;11289;52.524;13.694;2023-02-14T05:08:42;103069.53;;;4.48;75.41
22241;BME280;11289;52.524;13.694;2023-02-14T05:11:08;103067.25;;;4.45;75.52
22241;BME280;11289;52.524;13.694;2023-02-14T05:13:33;103061.59;;;4.40;75.45
22241;BME280;11289;52.524;13.694;2023-02-14T05:15:59;103074.88;;;4.43;76.09
22241;BME280;11289;52.524;13.694;2023-02-14T05:18:25;103067.25;;;4.45;76.79
22241;BME280;11289;52.524;13.694;2023-02-14T05:20:51;103061.13;;;4.43;76.54
22241;BME280;11289;52.524;13.694;2023-02-14T05:23:18;103060.28;;;4.42;76.93
22241;BME280;11289;52.524;13.694;2023-02-14T05:25:43;103064.97;;;4.42;76.49
22241;BME280;11289;52.524;13.694;2023-02-14T05:28:09;103063.41;;;4.46;76.50
22241;BME280;11289;52.524;13.694;2023-02-14T05:30:36;103051.44;;;4.40;76.66
22241;BME280;11289;52.524;13.694;2023-02-14T05:33:02;103059.25;;;4.43;76.85
22241;BME280;11289;52.524;13.694;2023-02-14T05:35:27;103067.84;;;4.47;76.44
22241;BME280;11289;52.524;13.694;2023-02-14T05:37:53;103072.53;;;4.46;76.20
22241;BME280;11289;52.524;13.694;2023-02-14T05:40:18;103059.59;;;4.47;76.58
22241;BME280;11289;52.524;13.694;2023-02-14T05:42:44;103062.00;;;4.43;76.36
22241;BME280;11289;52.524;13.694;2023-02-14T05:45:10;103063.06;;;4.42;76.99
22241;BME280;11289;52.524;13.694;2023-02-14T05:47:36;103047.25;;;4.38;76.31
22241;BME280;11289;52.524;13.694;2023-02-14T05:50:02;103046.25;;;4.32;75.91
22241;BME280;11289;52.524;13.694;2023-02-14T05:52:28;103058.94;;;4.33;76.58
22241;BME280;11289;52.524;13.694;2023-02-14T05:54:53;103048.75;;;4.33;77.10
22241;BME280;11289;52.524;13.694;2023-02-14T05:57:18;103052.09;;;4.35;77.30
22241;BME280;11289;52.524;13.694;2023-02-14T05:59:44;103065.19;;;4.40;77.56
22241;BME280;11289;52.524;13.694;2023-02-14T06:02:09;103063.28;;;4.41;77.65
22241;BME280;11289;52.524;13.694;2023-02-14T06:04:35;103059.94;;;4.39;77.03
22241;BME280;11289;52.524;13.694;2023-02-14T06:07:00;103059.47;;;4.42;76.88
22241;BME280;11289;52.524;13.694;2023-02-14T06:09:25;103058.25;;;4.38;76.83
22241;BME280;11289;52.524;13.694;2023-02-14T06:11:51;103060.53;;;4.41;77.21
22241;BME280;11289;52.524;13.694;2023-02-14T06:14:17;103053.81;;;4.36;76.79
22241;BME280;11289;52.524;13.694;2023-02-14T06:16:42;103063.06;;;4.42;77.49
22241;BME280;11289;52.524;13.694;2023-02-14T06:19:07;103061.59;;;4.40;77.32
22241;BME280;11289;52.524;13.694;2023-02-14T06:21:33;103059.47;;;4.42;77.30
22241;BME280;11289;52.524;13.694;2023-02-14T06:23:58;103067.94;;;4.40;77.01
22241;BME280;11289;52.524;13.694;2023-02-14T06:26:24;103066.50;;;4.38;76.31
22241;BME280;11289;52.524;13.694;2023-02-14T06:28:54;103063.97;;;4.36;76.35
22241;BME280;11289;52.524;13.694;2023-02-14T06:31:19;103058.06;;;4.32;76.62
22241;BME280;11289;52.524;13.694;2023-02-14T06:33:44;103055.94;;;4.34;76.94
22241;BME280;11289;52.524;13.694;2023-02-14T06:36:10;103071.53;;;4.41;77.28
22241;BME280;11289;52.524;13.694;2023-02-14T06:38:35;103054.03;;;4.35;77.62
22241;BME280;11289;52.524;13.694;2023-02-14T06:41:05;103073.22;;;4.42;77.43
22241;BME280;11289;52.524;13.694;2023-02-14T06:43:31;103067.78;;;4.35;76.99
22241;BME280;11289;52.524;13.694;2023-02-14T06:45:57;103074.88;;;4.43;77.19
22241;BME280;11289;52.524;13.694;2023-02-14T06:48:22;103064.34;;;4.40;77.21
22241;BME280;11289;52.524;13.694;2023-02-14T06:50:48;103075.50;;;4.45;76.33
22241;BME280;11289;52.524;13.694;2023-02-14T06:53:13;103064.19;;;4.34;75.98
22241;BME280;11289;52.524;13.694;2023-02-14T06:55:39;103067.41;;;4.31;75.55
22241;BME280;11289;52.524;13.694;2023-02-14T06:58:04;103068.63;;;4.35;75.98
22241;BME280;11289;52.524;13.694;2023-02-14T07:00:29;103049.06;;;4.25;76.72
22241;BME280;11289;52.524;13.694;2023-02-14T07:02:55;103063.13;;;4.35;75.99
22241;BME280;11289;52.524;13.694;2023-02-14T07:05:21;103061.00;;;4.38;75.79
22241;BME280;11289;52.524;13.694;2023-02-14T07:07:46;103067.25;;;4.45;76.38
22241;BME280;11289;52.524;13.694;2023-02-14T07:10:12;103056.72;;;4.42;75.86
22241;BME280;11289;52.524;13.694;2023-02-14T07:12:37;103066.78;;;4.48;76.18
22241;BME280;11289;52.524;13.694;2023-02-14T07:15:11;103067.63;;;4.48;74.71
22241;BME280;11289;52.524;13.694;2023-02-14T07:17:38;103061.53;;;4.46;75.76
22241;BME280;11289;52.524;13.694;2023-02-14T07:20:08;103069.69;;;4.53;75.90
22241;BME280;11289;52.524;13.694;2023-02-14T07:22:34;103064.50;;;4.45;74.90
22241;BME280;11289;52.524;13.694;2023-02-14T07:24:59;103070.53;;;4.53;75.18
22241;BME280;11289;52.524;13.694;2023-02-14T07:27:25;103071.38;;;4.54;75.78
22241;BME280;11289;52.524;13.694;2023-02-14T07:29:50;103058.47;;;4.55;75.94
22241;BME280;11289;52.524;13.694;2023-02-14T07:32:16;103056.91;;;4.59;75.62
22241;BME280;11289;52.524;13.694;2023-02-14T07:34:41;103063.13;;;4.54;74.80
22241;BME280;11289;52.524;13.694;2023-02-14T07:37:07;103062.88;;;4.56;75.00
22241;BME280;11289;52.524;13.694;2023-02-14T07:39:32;103062.66;;;4.57;75.68
22241;BME280;11289;52.524;13.694;2023-02-14T07:41:57;103068.69;;;4.66;75.44
22241;BME280;11289;52.524;13.694;2023-02-14T07:44:23;103073.13;;;4.67;75.88
22241;BME280;11289;52.524;13.694;2023-02-14T07:46:48;103064.03;;;4.66;74.20
22241;BME280;11289;52.524;13.694;2023-02-14T07:49:14;103080.44;;;4.73;74.71
22241;BME280;11289;52.524;13.694;2023-02-14T07:51:39;103070.53;;;4.72;75.15
22241;BME280;11289;52.524;13.694;2023-02-14T07:54:05;103069.84;;;4.77;74.87
22241;BME280;11289;52.524;13.694;2023-02-14T07:56:30;103065.97;;;4.78;74.94
22241;BME280;11289;52.524;13.694;2023-02-14T07:58:55;103069.72;;;4.83;74.36
22241;BME280;11289;52.524;13.694;2023-02-14T08:01:21;103061.69;;;4.82;74.26
22241;BME280;11289;52.524;13.694;2023-02-14T08:03:46;103070.13;;;4.87;74.76
22241;BME280;11289;52.524;13.694;2023-02-14T08:06:16;103068.59;;;4.91;74.54
22241;BME280;11289;52.524;13.694;2023-02-14T08:08:42;103074.22;;;4.96;75.00
22241;BME280;11289;52.524;13.694;2023-02-14T08:11:07;103070.41;;;4.97;74.67
22241;BME280;11289;52.524;13.694;2023-02-14T08:13:33;103069.34;;;4.98;75.31
22241;BME280;11289;52.524;13.694;2023-02-14T08:15:58;103066.13;;;5.01;74.83
22241;BME280;11289;52.524;13.694;2023-02-14T08:18:35;103085.38;;;5.01;73.14
22241;BME280;11289;52.524;13.694;2023-02-14T08:21:02;103082.25;;;4.98;73.35
22241;BME280;11289;52.524;13.694;2023-02-14T08:23:28;103098.41;;;4.94;73.98
22241;BME280;11289;52.524;13.694;2023-02-14T08:25:54;103094.72;;;5.00;73.59
22241;BME280;11289;52.524;13.694;2023-02-14T08:28:20;103098.53;;;4.99;73.27
22241;BME280;11289;52.524;13.694;2023-02-14T08:30:46;103087.63;;;4.93;73.03
22241;BME280;11289;52.524;13.694;2023-02-14T08:33:11;103090.16;;;4.94;73.87
22241;BME280;11289;52.524;13.694;2023-02-14T08:35:37;103094.88;;;5.05;74.42
22241;BME280;11289;52.524;13.694;2023-02-14T08:38:03;103110.69;;;5.10;74.04
22241;BME280;11289;52.524;13.694;2023-02-14T08:40:28;103098.22;;;5.08;73.56
22241;BME280;11289;52.524;13.694;2023-02-14T08:42:54;103089.94;;;5.08;73.59
22241;BME280;11289;52.524;13.694;2023-02-14T08:45:20;103112.75;;;5.15;73.62
22241;BME280;11289;52.524;13.694;2023-02-14T08:47:46;103115.03;;;5.18;73.22
22241;BME280;11289;52.524;13.694;2023-02-14T08:50:14;103111.91;;;5.14;72.68
22241;BME280;11289;52.524;13.694;2023-02-14T08:52:41;103108.69;;;5.17;72.16
22241;BME280;11289;52.524;13.694;2023-02-14T08:55:09;103113.97;;;5.19;72.19
22241;BME280;11289;52.524;13.694;2023-02-14T08:57:34;103100.25;;;5.12;72.34
22241;BME280;11289;52.524;13.694;2023-02-14T09:00:00;103118.75;;;5.23;73.09
22241;BME280;11289;52.524;13.694;2023-02-14T09:02:26;103104.84;;;5.18;71.76
22241;BME280;11289;52.524;13.694;2023-02-14T09:04:51;103120.91;;;5.21;71.88
22241;BME280;11289;52.524;13.694;2023-02-14T09:07:16;103112.66;;;5.21;72.19
22241;BME280;11289;52.524;13.694;2023-02-14T09:09:42;103109.19;;;5.26;72.56
22241;BME280;11289;52.524;13.694;2023-02-14T09:12:08;103112.69;;;5.33;72.50
22241;BME280;11289;52.524;13.694;2023-02-14T09:14:35;103110.19;;;5.32;72.07
22241;BME280;11289;52.524;13.694;2023-02-14T09:17:01;103113.91;;;5.37;72.38
22241;BME280;11289;52.524;13.694;2023-02-14T09:19:33;103115.56;;;5.38;72.72
22241;BME280;11289;52.524;13.694;2023-02-14T09:21:58;103116.31;;;5.46;71.92
22241;BME280;11289;52.524;13.694;2023-02-14T09:24:24;103126.63;;;5.50;71.95
22241;BME280;11289;52.524;13.694;2023-02-14T09:26:51;103119.56;;;5.54;71.95
22241;BME280;11289;52.524;13.694;2023-02-14T09:29:16;103114.28;;;5.53;70.94
22241;BME280;11289;52.524;13.694;2023-02-14T09:31:42;103110.94;;;5.51;71.17
22241;BME280;11289;52.524;13.694;2023-02-14T09:34:07;103115.66;;;5.62;71.77
22241;BME280;11289;52.524;13.694;2023-02-14T09:36:51;103120.31;;;5.62;71.39
22241;BME280;11289;52.524;13.694;2023-02-14T09:39:16;103123.06;;;5.62;70.96
22241;BME280;11289;52.524;13.694;2023-02-14T09:47:06;103120.06;;;5.63;70.64
22241;BME280;11289;52.524;13.694;2023-02-14T09:49:37;103124.91;;;5.68;70.72
22241;BME280;11289;52.524;13.694;2023-02-14T09:52:05;103120.31;;;5.73;70.98
22241;BME280;11289;52.524;13.694;2023-02-14T09:54:33;103112.53;;;5.70;70.35
22241;BME280;11289;52.524;13.694;2023-02-14T09:57:37;103115.03;;;5.72;70.14
22241;BME280;11289;52.524;13.694;2023-02-14T10:00:12;103120.47;;;5.79;70.83
22241;BME280;11289;52.524;13.694;2023-02-14T10:02:52;103125.03;;;5.85;70.90
22241;BME280;11289;52.524;13.694;2023-02-14T10:05:25;103114.00;;;5.85;70.62
22241;BME280;11289;52.524;13.694;2023-02-14T10:08:07;103122.41;;;5.90;70.05
22241;BME280;11289;52.524;13.694;2023-02-14T10:10:46;103124.44;;;5.95;70.79
22241;BME280;11289;52.524;13.694;2023-02-14T10:13:43;103119.31;;;5.98;70.45
22241;BME280;11289;52.524;13.694;2023-02-14T10:16:20;103110.19;;;5.98;70.03
22241;BME280;11289;52.524;13.694;2023-02-14T10:18:58;103115.47;;;5.99;69.65
22241;BME280;11289;52.524;13.694;2023-02-14T10:21:44;103112.59;;;5.94;69.29
22241;BME280;11289;52.524;13.694;2023-02-14T10:24:20;103111.88;;;5.99;69.92
22241;BME280;11289;52.524;13.694;2023-02-14T10:26:48;103117.03;;;6.07;69.78
22241;BME280;11289;52.524;13.694;2023-02-14T10:29:16;103111.31;;;6.08;69.20
22241;BME280;11289;52.524;13.694;2023-02-14T10:32:00;103111.41;;;6.14;69.76
22241;BME280;11289;52.524;13.694;2023-02-14T10:45:53;103097.03;;;6.12;68.73
22241;BME280;11289;52.524;13.694;2023-02-14T10:51:20;103094.63;;;6.15;69.18
22241;BME280;11289;52.524;13.694;2023-02-14T10:58:53;103094.59;;;6.27;68.65
22241;BME280;11289;52.524;13.694;2023-02-14T11:01:20;103102.16;;;6.32;67.99
22241;BME280;11289;52.524;13.694;2023-02-14T11:04:06;103095.69;;;6.38;68.12
22241;BME280;11289;52.524;13.694;2023-02-14T11:06:35;103090.41;;;6.36;68.26
22241;BME280;11289;52.524;13.694;2023-02-14T11:09:01;103081.66;;;6.39;67.65
22241;BME280;11289;52.524;13.694;2023-02-14T11:11:33;103090.50;;;6.41;67.21
22241;BME280;11289;52.524;13.694;2023-02-14T11:14:26;103085.00;;;6.41;67.48
22241;BME280;11289;52.524;13.694;2023-02-14T11:16:54;103092.78;;;6.44;68.28
22241;BME280;11289;52.524;13.694;2023-02-14T11:21:48;103083.28;;;6.40;66.65
22241;BME280;11289;52.524;13.694;2023-02-14T11:27:15;103071.59;;;6.33;67.63
22241;BME280;11289;52.524;13.694;2023-02-14T11:29:46;103081.03;;;6.37;66.42
22241;BME280;11289;52.524;13.694;2023-02-14T11:35:02;103065.69;;;6.30;66.79
22241;BME280;11289;52.524;13.694;2023-02-14T11:37:35;103074.94;;;6.35;66.60
22241;BME280;11289;52.524;13.694;2023-02-14T11:40:03;103066.97;;;6.39;67.49
22241;BME280;11289;52.524;13.694;2023-02-14T11:42:44;103064.47;;;6.49;67.87
22241;BME280;11289;52.524;13.694;2023-02-14T11:48:26;103063.97;;;6.52;66.86
22241;BME280;11289;52.524;13.694;2023-02-14T11:50:59;103056.53;;;6.53;66.60
22241;BME280;11289;52.524;13.694;2023-02-14T11:53:28;103059.75;;;6.61;67.02
22241;BME280;11289;52.524;13.694;2023-02-14T11:55:56;103053.28;;;6.56;66.01
22241;BME280;11289;52.524;13.694;2023-02-14T11:58:41;103052.31;;;6.50;66.70
22241;BME280;11289;52.524;13.694;2023-02-14T12:01:21;103047.41;;;6.52;66.12
22241;BME280;11289;52.524;13.694;2023-02-14T12:03:49;103046.69;;;6.57;66.62
22241;BME280;11289;52.524;13.694;2023-02-14T12:06:26;103049.78;;;6.60;66.56
22241;BME280;11289;52.524;13.694;2023-02-14T12:12:00;103035.72;;;6.62;66.21
22241;BME280;11289;52.524;13.694;2023-02-14T12:14:29;103040.78;;;6.65;65.05
22241;BME280;11289;52.524;13.694;2023-02-14T12:19:48;103041.13;;;6.69;66.24
22241;BME280;11289;52.524;13.694;2023-02-14T12:22:19;103033.66;;;6.69;65.59
22241;BME280;11289;52.524;13.694;2023-02-14T12:27:29;103032.72;;;6.63;65.74
22241;BME280;11289;52.524;13.694;2023-02-14T12:30:23;103010.44;;;6.53;64.96
22241;BME280;11289;52.524;13.694;2023-02-14T12:32:52;103013.63;;;6.62;66.13
22241;BME280;11289;52.524;13.694;2023-02-14T12:38:15;102986.31;;;6.49;65.11
22241;BME280;11289;52.524;13.694;2023-02-14T12:43:41;102994.81;;;6.59;65.47
22241;BME280;11289;52.524;13.694;2023-02-14T12:46:19;102993.25;;;6.63;66.61
22241;BME280;11289;52.524;13.694;2023-02-14T12:57:31;102982.25;;;6.80;65.37
22241;BME280;11289;52.524;13.694;2023-02-14T13:10:52;102966.19;;;6.94;65.85
22241;BME280;11289;52.524;13.694;2023-02-14T13:13:46;102968.44;;;6.97;65.20
22241;BME280;11289;52.524;13.694;2023-02-14T13:16:40;102964.84;;;6.96;64.90
22241;BME280;11289;52.524;13.694;2023-02-14T13:19:27;102962.91;;;6.97;65.23
22241;BME280;11289;52.524;13.694;2023-02-14T13:21:57;102950.63;;;6.88;64.64
22241;BME280;11289;52.524;13.694;2023-02-14T13:24:27;102950.88;;;6.86;65.19
22241;BME280;11289;52.524;13.694;2023-02-14T13:27:00;102956.53;;;6.79;65.51
22241;BME280;11289;52.524;13.694;2023-02-14T13:29:36;102934.88;;;6.71;65.49
22241;BME280;11289;52.524;13.694;2023-02-14T13:32:04;102929.59;;;6.70;65.98
22241;BME280;11289;52.524;13.694;2023-02-14T13:34:42;102936.63;;;6.77;65.80
22241;BME280;11289;52.524;13.694;2023-02-14T13:37:15;102945.41;;;6.74;65.48
22241;BME280;11289;52.524;13.694;2023-02-14T13:45:49;102950.00;;;6.69;65.93
22241;BME280;11289;52.524;13.694;2023-02-14T13:48:15;102942.03;;;6.72;66.01
22241;BME280;11289;52.524;13.694;2023-02-14T13:53:45;102935.69;;;6.72;66.22
22241;BME280;11289;52.524;13.694;2023-02-14T13:58:57;102944.72;;;6.67;65.17
22241;BME280;11289;52.524;13.694;2023-02-14T14:06:27;102940.53;;;6.65;66.45
22241;BME280;11289;52.524;13.694;2023-02-14T14:08:54;102946.41;;;6.68;66.35
22241;BME280;11289;52.524;13.694;2023-02-14T14:22:01;102936.22;;;6.86;66.15
22241;BME280;11289;52.524;13.694;2023-02-14T14:24:38;102934.56;;;6.85;66.20
22241;BME280;11289;52.524;13.694;2023-02-14T14:27:40;102934.31;;;6.86;66.55
22241;BME280;11289;52.524;13.694;2023-02-14T14:32:41;102930.72;;;6.86;66.21
22241;BME280;11289;52.524;13.694;2023-02-14T14:37:55;102935.97;;;6.87;66.65
22241;BME280;11289;52.524;13.694;2023-02-14T14:40:35;102928.78;;;6.86;66.70
22241;BME280;11289;52.524;13.694;2023-02-14T14:43:11;102911.44;;;6.74;66.59
22241;BME280;11289;52.524;13.694;2023-02-14T14:45:37;102923.31;;;6.74;65.58
22241;BME280;11289;52.524;13.694;2023-02-14T14:48:09;102922.25;;;6.75;66.02
22241;BME280;11289;52.524;13.694;2023-02-14T14:50:37;102918.44;;;6.65;66.41
22241;BME280;11289;52.524;13.694;2023-02-14T14:55:54;102915.53;;;6.71;66.68
22241;BME280;11289;52.524;13.694;2023-02-14T14:58:34;102921.13;;;6.76;67.17
22241;BME280;11289;52.524;13.694;2023-02-14T15:01:36;102915.13;;;6.79;66.82
22241;BME280;11289;52.524;13.694;2023-02-14T15:04:34;102909.78;;;6.90;66.88
22241;BME280;11289;52.524;13.694;2023-02-14T15:07:31;102910.94;;;6.94;66.07
22241;BME280;11289;52.524;13.694;2023-02-14T15:09:57;102893.13;;;6.85;66.18
22241;BME280;11289;52.524;13.694;2023-02-14T15:12:23;102909.09;;;7.00;66.44
22241;BME280;11289;52.524;13.694;2023-02-14T15:15:12;102896.16;;;7.00;65.71
22241;BME280;11289;52.524;13.694;2023-02-14T15:17:39;102886.19;;;6.99;66.27
22241;BME280;11289;52.524;13.694;2023-02-14T15:20:09;102891.03;;;7.09;66.02
22241;BME280;11289;52.524;13.694;2023-02-14T15:22:42;102894.78;;;7.20;66.10
22241;BME280;11289;52.524;13.694;2023-02-14T15:25:12;102869.25;;;7.12;66.12
22241;BME280;11289;52.524;13.694;2023-02-14T15:27:41;102883.47;;;7.21;65.44
22241;BME280;11289;52.524;13.694;2023-02-14T15:30:30;102882.31;;;7.17;65.09
22241;BME280;11289;52.524;13.694;2023-02-14T15:33:00;102873.44;;;7.15;65.84
22241;BME280;11289;52.524;13.694;2023-02-14T15:35:29;102880.47;;;7.23;65.74
22241;BME280;11289;52.524;13.694;2023-02-14T15:37:57;102876.09;;;7.27;66.11